sensor_id;sensor_type;location;lat;lon;timestamp;pressure;altitude;pressure_sealevel;temperature;humidity
56142;BME280;42018;48.588;10.836;2023-06-04T00:01:24;96760.09;;;16.10;44.01
56142;BME280;42018;48.588;10.836;2023-06-04T00:04:10;96760.06;;;16.23;44.14
56142;BME280;42018;48.588;10.836;2023-06-04T00:06:55;96758.75;;;16.35;44.30
56142;BME280;42018;48.588;10.836;2023-06-04T00:09:40;96757.91;;;16.48;44.59
56142;BME280;42018;48.588;10.836;2023-06-04T00:12:26;96760.09;;;16.46;43.40
56142;BME280;42018;48.588;10.836;2023-06-04T00:15:13;96755.13;;;16.53;43.63
56142;BME280;42018;48.588;10.836;2023-06-04T00:17:59;96763.88;;;16.45;43.72
56142;BME280;42018;48.588;10.836;2023-06-04T00:20:44;96755.06;;;16.44;43.32
56142;BME280;42018;48.588;10.836;2023-06-04T00:23:29;96757.91;;;16.48;43.53
56142;BME280;42018;48.588;10.836;2023-06-04T00:26:15;96755.72;;;16.50;43.96
56142;BME280;42018;48.588;10.836;2023-06-04T00:29:00;96770.00;;;16.45;43.21
56142;BME280;42018;48.588;10.836;2023-06-04T00:31:46;96759.53;;;16.58;43.06
56142;BME280;42018;48.588;10.836;2023-06-04T00:34:31;96763.59;;;16.69;43.77
56142;BME280;42018;48.588;10.836;2023-06-04T00:37:17;96767.16;;;16.64;43.57
56142;BME280;42018;48.588;10.836;2023-06-04T00:40:02;96760.56;;;16.62;43.25
56142;BME280;42018;48.588;10.836;2023-06-04T00:42:48;96761.44;;;16.57;43.12
56142;BME280;42018;48.588;10.836;2023-06-04T00:45:34;96759.84;;;16.34;42.68
56142;BME280;42018;48.588;10.836;2023-06-04T00:48:20;96762.53;;;16.34;43.65
56142;BME280;42018;48.588;10.836;2023-06-04T00:51:06;96763.69;;;16.41;43.81
56142;BME280;42018;48.588;10.836;2023-06-04T00:53:51;96771.72;;;16.41;43.81
56142;BME280;42018;48.588;10.836;2023-06-04T00:56:37;96768.63;;;16.48;43.19
56142;BME280;42018;48.588;10.836;2023-06-04T00:59:23;96774.06;;;16.43;43.00
56142;BME280;42018;48.588;10.836;2023-06-04T01:02:12;96778.38;;;16.30;43.38
56142;BME280;42018;48.588;10.836;2023-06-04T01:07:54;96780.97;;;16.08;43.15
56142;BME280;42018;48.588;10.836;2023-06-04T01:10:58;96774.16;;;16.15;44.10
56142;BME280;42018;48.588;10.836;2023-06-04T01:13:44;96778.47;;;16.25;43.72
56142;BME280;42018;48.588;10.836;2023-06-04T01:16:34;96781.44;;;16.37;44.03
56142;BME280;42018;48.588;10.836;2023-06-04T01:25:37;96785.31;;;16.17;44.38
56142;BME280;42018;48.588;10.836;2023-06-04T01:28:26;96778.19;;;16.26;44.72
56142;BME280;42018;48.588;10.836;2023-06-04T01:31:12;96779.38;;;16.20;44.27
56142;BME280;42018;48.588;10.836;2023-06-04T01:33:59;96777.41;;;16.12;44.60
56142;BME280;42018;48.588;10.836;2023-06-04T01:36:44;96779.59;;;16.10;45.12
56142;BME280;42018;48.588;10.836;2023-06-04T01:39:29;96778.53;;;15.97;45.20
56142;BME280;42018;48.588;10.836;2023-06-04T01:42:15;96774.84;;;16.07;45.49
56142;BME280;42018;48.588;10.836;2023-06-04T01:45:00;96777.44;;;15.85;45.62
56142;BME280;42018;48.588;10.836;2023-06-04T01:47:46;96779.59;;;15.83;45.96
56142;BME280;42018;48.588;10.836;2023-06-04T01:50:31;96779.53;;;15.74;45.53
56142;BME280;42018;48.588;10.836;2023-06-04T01:53:17;96773.63;;;15.58;46.10
56142;BME280;42018;48.588;10.836;2023-06-04T01:56:03;96778.91;;;15.63;46.31
56142;BME280;42018;48.588;10.836;2023-06-04T01:58:48;96782.06;;;15.65;46.90
56142;BME280;42018;48.588;10.836;2023-06-04T02:01:33;96788.25;;;15.79;47.07
56142;BME280;42018;48.588;10.836;2023-06-04T02:04:19;96788.44;;;15.83;45.72
56142;BME280;42018;48.588;10.836;2023-06-04T02:07:06;96785.34;;;15.62;46.18
56142;BME280;42018;48.588;10.836;2023-06-04T02:09:52;96779.28;;;15.43;46.37
56142;BME280;42018;48.588;10.836;2023-06-04T02:12:39;96781.97;;;15.56;46.60
56142;BME280;42018;48.588;10.836;2023-06-04T02:15:28;96784.53;;;15.48;46.86
56142;BME280;42018;48.588;10.836;2023-06-04T02:18:20;96783.97;;;15.18;46.86
56142;BME280;42018;48.588;10.836;2023-06-04T02:21:07;96780.41;;;15.09;47.44
56142;BME280;42018;48.588;10.836;2023-06-04T02:23:52;96781.88;;;15.15;47.63
56142;BME280;42018;48.588;10.836;2023-06-04T02:26:37;96785.19;;;15.26;47.46
56142;BME280;42018;48.588;10.836;2023-06-04T02:29:23;96777.97;;;15.26;47.64
56142;BME280;42018;48.588;10.836;2023-06-04T02:32:09;96790.25;;;15.41;47.69
56142;BME280;42018;48.588;10.836;2023-06-04T02:34:55;96784.63;;;15.43;48.12
56142;BME280;42018;48.588;10.836;2023-06-04T02:37:41;96791.03;;;15.42;47.54
56142;BME280;42018;48.588;10.836;2023-06-04T02:40:26;96782.53;;;15.40;47.99
56142;BME280;42018;48.588;10.836;2023-06-04T02:43:12;96785.78;;;15.37;48.00
56142;BME280;42018;48.588;10.836;2023-06-04T02:45:57;96791.84;;;15.42;47.82
56142;BME280;42018;48.588;10.836;2023-06-04T02:48:43;96780.13;;;15.24;47.79
56142;BME280;42018;48.588;10.836;2023-06-04T02:51:28;96784.59;;;15.29;47.79
56142;BME280;42018;48.588;10.836;2023-06-04T02:54:13;96787.25;;;15.29;47.58
56142;BME280;42018;48.588;10.836;2023-06-04T02:56:59;96785.38;;;15.29;48.00
56142;BME280;42018;48.588;10.836;2023-06-04T02:59:45;96791.22;;;15.31;48.00
56142;BME280;42018;48.588;10.836;2023-06-04T03:02:30;96789.75;;;15.39;48.05
56142;BME280;42018;48.588;10.836;2023-06-04T03:05:16;96797.06;;;15.47;47.80
56142;BME280;42018;48.588;10.836;2023-06-04T03:08:02;96790.09;;;15.51;47.81
56142;BME280;42018;48.588;10.836;2023-06-04T03:10:50;96795.41;;;15.38;48.29
56142;BME280;42018;48.588;10.836;2023-06-04T03:13:35;96795.88;;;15.40;48.13
56142;BME280;42018;48.588;10.836;2023-06-04T03:16:21;96798.13;;;15.32;47.90
56142;BME280;42018;48.588;10.836;2023-06-04T03:19:06;96792.72;;;15.38;48.52
56142;BME280;42018;48.588;10.836;2023-06-04T03:21:53;96801.91;;;15.31;48.82
56142;BME280;42018;48.588;10.836;2023-06-04T03:24:40;96802.25;;;15.11;49.48
56142;BME280;42018;48.588;10.836;2023-06-04T03:27:26;96805.00;;;15.06;49.13
56142;BME280;42018;48.588;10.836;2023-06-04T03:30:11;96802.34;;;15.06;49.46
56142;BME280;42018;48.588;10.836;2023-06-04T03:32:57;96816.69;;;15.10;48.41
56142;BME280;42018;48.588;10.836;2023-06-04T03:35:42;96814.84;;;14.92;48.87
56142;BME280;42018;48.588;10.836;2023-06-04T03:38:27;96811.03;;;14.98;49.63
56142;BME280;42018;48.588;10.836;2023-06-04T03:41:13;96807.31;;;15.13;49.11
56142;BME280;42018;48.588;10.836;2023-06-04T03:43:58;96814.91;;;15.05;48.82
56142;BME280;42018;48.588;10.836;2023-06-04T03:46:44;96810.25;;;15.11;48.98
56142;BME280;42018;48.588;10.836;2023-06-04T03:49:30;96809.63;;;15.00;49.29
56142;BME280;42018;48.588;10.836;2023-06-04T03:52:15;96811.38;;;14.91;48.86
56142;BME280;42018;48.588;10.836;2023-06-04T03:55:00;96815.34;;;14.94;49.04
56142;BME280;42018;48.588;10.836;2023-06-04T03:57:46;96809.31;;;14.88;49.13
56142;BME280;42018;48.588;10.836;2023-06-04T04:00:32;96815.63;;;14.92;49.23
56142;BME280;42018;48.588;10.836;2023-06-04T04:03:17;96823.78;;;14.82;49.35
56142;BME280;42018;48.588;10.836;2023-06-04T04:06:02;96816.03;;;14.67;49.63
56142;BME280;42018;48.588;10.836;2023-06-04T04:08:48;96813.41;;;14.80;49.80
56142;BME280;42018;48.588;10.836;2023-06-04T04:11:33;96814.22;;;14.81;49.49
56142;BME280;42018;48.588;10.836;2023-06-04T04:14:19;96824.94;;;14.76;49.88
56142;BME280;42018;48.588;10.836;2023-06-04T04:17:04;96816.56;;;14.82;49.84
56142;BME280;42018;48.588;10.836;2023-06-04T04:19:50;96824.78;;;15.05;49.62
56142;BME280;42018;48.588;10.836;2023-06-04T04:22:40;96829.50;;;15.08;48.90
56142;BME280;42018;48.588;10.836;2023-06-04T04:25:26;96831.72;;;14.68;49.09
56142;BME280;42018;48.588;10.836;2023-06-04T04:28:11;96828.56;;;14.66;48.65
56142;BME280;42018;48.588;10.836;2023-06-04T04:30:57;96831.22;;;14.85;48.31
56142;BME280;42018;48.588;10.836;2023-06-04T04:33:42;96832.16;;;14.75;48.63
56142;BME280;42018;48.588;10.836;2023-06-04T04:36:28;96830.47;;;14.98;48.01
56142;BME280;42018;48.588;10.836;2023-06-04T04:39:13;96831.47;;;15.02;47.81
56142;BME280;42018;48.588;10.836;2023-06-04T04:41:59;96831.38;;;15.26;47.69
56142;BME280;42018;48.588;10.836;2023-06-04T04:44:44;96837.03;;;15.39;47.91
56142;BME280;42018;48.588;10.836;2023-06-04T04:47:33;96837.31;;;15.51;47.54
56142;BME280;42018;48.588;10.836;2023-06-04T04:50:18;96845.47;;;15.60;47.54
56142;BME280;42018;48.588;10.836;2023-06-04T04:53:03;96843.47;;;15.65;47.55
56142;BME280;42018;48.588;10.836;2023-06-04T04:55:49;96859.50;;;15.65;47.44
56142;BME280;42018;48.588;10.836;2023-06-04T04:58:34;96853.81;;;15.72;46.92
56142;BME280;42018;48.588;10.836;2023-06-04T05:01:20;96855.31;;;15.78;47.06
56142;BME280;42018;48.588;10.836;2023-06-04T05:04:05;96860.47;;;15.88;47.27
56142;BME280;42018;48.588;10.836;2023-06-04T05:06:51;96859.88;;;15.91;47.02
56142;BME280;42018;48.588;10.836;2023-06-04T05:09:36;96870.84;;;16.03;46.84
56142;BME280;42018;48.588;10.836;2023-06-04T05:12:25;96867.59;;;16.07;46.71
56142;BME280;42018;48.588;10.836;2023-06-04T05:15:10;96873.06;;;16.15;46.07
56142;BME280;42018;48.588;10.836;2023-06-04T05:17:57;96880.25;;;16.15;45.40
56142;BME280;42018;48.588;10.836;2023-06-04T05:20:46;96877.19;;;16.21;45.89
56142;BME280;42018;48.588;10.836;2023-06-04T05:23:31;96874.72;;;16.11;44.58
56142;BME280;42018;48.588;10.836;2023-06-04T05:26:19;96882.44;;;16.26;45.43
56142;BME280;42018;48.588;10.836;2023-06-04T05:29:08;96878.69;;;16.27;44.91
56142;BME280;42018;48.588;10.836;2023-06-04T05:31:53;96881.34;;;16.27;45.45
56142;BME280;42018;48.588;10.836;2023-06-04T05:34:39;96879.25;;;16.38;45.79
56142;BME280;42018;48.588;10.836;2023-06-04T05:37:25;96880.25;;;16.42;45.80
56142;BME280;42018;48.588;10.836;2023-06-04T05:40:14;96874.69;;;16.39;45.67
56142;BME280;42018;48.588;10.836;2023-06-04T05:42:59;96881.34;;;16.41;44.86
56142;BME280;42018;48.588;10.836;2023-06-04T05:45:45;96886.97;;;16.53;45.62
56142;BME280;42018;48.588;10.836;2023-06-04T05:48:30;96881.53;;;16.59;45.50
56142;BME280;42018;48.588;10.836;2023-06-04T05:51:15;96886.69;;;16.41;44.60
56142;BME280;42018;48.588;10.836;2023-06-04T05:54:01;96886.31;;;16.20;43.15
56142;BME280;42018;48.588;10.836;2023-06-04T05:56:46;96890.88;;;16.20;43.56
56142;BME280;42018;48.588;10.836;2023-06-04T05:59:32;96899.78;;;16.15;43.61
56142;BME280;42018;48.588;10.836;2023-06-04T06:02:17;96895.31;;;16.38;43.57
56142;BME280;42018;48.588;10.836;2023-06-04T06:05:03;96897.00;;;16.20;42.53
56142;BME280;42018;48.588;10.836;2023-06-04T06:07:48;96894.22;;;16.39;43.40
56142;BME280;42018;48.588;10.836;2023-06-04T06:10:34;96897.00;;;16.48;43.12
56142;BME280;42018;48.588;10.836;2023-06-04T06:13:23;96904.03;;;16.44;43.07
56142;BME280;42018;48.588;10.836;2023-06-04T06:16:11;96900.78;;;16.33;42.51
56142;BME280;42018;48.588;10.836;2023-06-04T06:18:56;96910.25;;;16.25;42.95
56142;BME280;42018;48.588;10.836;2023-06-04T06:21:42;96908.69;;;16.24;41.86
56142;BME280;42018;48.588;10.836;2023-06-04T06:24:27;96917.50;;;16.39;42.41
56142;BME280;42018;48.588;10.836;2023-06-04T06:27:13;96919.97;;;16.49;42.90
56142;BME280;42018;48.588;10.836;2023-06-04T06:29:58;96910.03;;;16.63;41.69
56142;BME280;42018;48.588;10.836;2023-06-04T06:32:43;96914.91;;;16.75;42.41
56142;BME280;42018;48.588;10.836;2023-06-04T06:35:29;96920.16;;;16.80;41.24
56142;BME280;42018;48.588;10.836;2023-06-04T06:38:14;96936.22;;;16.80;42.17
56142;BME280;42018;48.588;10.836;2023-06-04T06:40:59;96926.09;;;16.91;42.09
56142;BME280;42018;48.588;10.836;2023-06-04T06:43:45;96923.50;;;16.86;41.45
56142;BME280;42018;48.588;10.836;2023-06-04T06:46:30;96923.66;;;17.03;41.40
56142;BME280;42018;48.588;10.836;2023-06-04T06:49:15;96920.19;;;17.25;41.10
56142;BME280;42018;48.588;10.836;2023-06-04T06:52:01;96924.53;;;17.35;41.84
56142;BME280;42018;48.588;10.836;2023-06-04T06:54:46;96915.84;;;17.29;42.07
56142;BME280;42018;48.588;10.836;2023-06-04T06:57:32;96923.63;;;17.39;40.29
56142;BME280;42018;48.588;10.836;2023-06-04T07:00:18;96925.81;;;17.37;41.35
56142;BME280;42018;48.588;10.836;2023-06-04T07:03:04;96925.25;;;17.49;40.73
56142;BME280;42018;48.588;10.836;2023-06-04T07:05:49;96919.97;;;17.58;41.11
56142;BME280;42018;48.588;10.836;2023-06-04T07:08:34;96920.03;;;17.66;41.12
56142;BME280;42018;48.588;10.836;2023-06-04T07:11:20;96919.97;;;17.58;39.88
56142;BME280;42018;48.588;10.836;2023-06-04T07:14:07;96923.31;;;17.63;40.29
56142;BME280;42018;48.588;10.836;2023-06-04T07:16:52;96932.59;;;17.80;40.92
56142;BME280;42018;48.588;10.836;2023-06-04T07:19:37;96921.53;;;18.04;40.81
56142;BME280;42018;48.588;10.836;2023-06-04T07:22:23;96921.53;;;18.04;40.00
56142;BME280;42018;48.588;10.836;2023-06-04T07:25:08;96918.03;;;18.03;40.91
56142;BME280;42018;48.588;10.836;2023-06-04T07:27:54;96911.84;;;18.34;41.00
56142;BME280;42018;48.588;10.836;2023-06-04T07:30:45;96918.66;;;18.49;39.54
56142;BME280;42018;48.588;10.836;2023-06-04T07:33:30;96915.53;;;18.64;39.80
56142;BME280;42018;48.588;10.836;2023-06-04T07:36:16;96913.03;;;18.67;39.86
56142;BME280;42018;48.588;10.836;2023-06-04T07:39:01;96917.66;;;18.76;40.38
56142;BME280;42018;48.588;10.836;2023-06-04T07:41:48;96900.47;;;18.94;40.22
56142;BME280;42018;48.588;10.836;2023-06-04T07:44:34;96906.31;;;19.22;38.70
56142;BME280;42018;48.588;10.836;2023-06-04T07:47:20;96906.31;;;18.96;39.19
56142;BME280;42018;48.588;10.836;2023-06-04T07:50:06;96905.53;;;19.22;39.66
56142;BME280;42018;48.588;10.836;2023-06-04T07:52:51;96906.28;;;19.48;39.38
56142;BME280;42018;48.588;10.836;2023-06-04T07:55:37;96909.91;;;19.61;38.19
56142;BME280;42018;48.588;10.836;2023-06-04T07:58:22;96914.03;;;19.76;38.96
56142;BME280;42018;48.588;10.836;2023-06-04T08:01:09;96906.44;;;19.69;38.99
56142;BME280;42018;48.588;10.836;2023-06-04T08:03:56;96907.13;;;20.04;38.94
56142;BME280;42018;48.588;10.836;2023-06-04T08:06:43;96910.25;;;20.15;37.27
56142;BME280;42018;48.588;10.836;2023-06-04T08:09:29;96897.78;;;20.40;37.87
56142;BME280;42018;48.588;10.836;2023-06-04T08:12:15;96909.06;;;20.33;38.60
56142;BME280;42018;48.588;10.836;2023-06-04T08:15:01;96901.13;;;20.67;37.54
56142;BME280;42018;48.588;10.836;2023-06-04T08:17:46;96904.94;;;20.66;37.06
56142;BME280;42018;48.588;10.836;2023-06-04T08:20:32;96903.56;;;20.60;36.66
56142;BME280;42018;48.588;10.836;2023-06-04T08:23:17;96901.72;;;20.51;37.52
56142;BME280;42018;48.588;10.836;2023-06-04T08:26:03;96914.09;;;20.94;37.32
56142;BME280;42018;48.588;10.836;2023-06-04T08:28:48;96913.66;;;21.13;36.08
56142;BME280;42018;48.588;10.836;2023-06-04T08:31:34;96903.41;;;21.27;36.82
56142;BME280;42018;48.588;10.836;2023-06-04T08:34:19;96894.72;;;21.22;36.18
56142;BME280;42018;48.588;10.836;2023-06-04T08:37:05;96905.00;;;21.08;36.72
56142;BME280;42018;48.588;10.836;2023-06-04T08:39:51;96907.19;;;21.26;36.03
56142;BME280;42018;48.588;10.836;2023-06-04T08:42:41;96901.91;;;21.18;35.87
56142;BME280;42018;48.588;10.836;2023-06-04T08:45:27;96900.78;;;21.40;36.62
56142;BME280;42018;48.588;10.836;2023-06-04T08:48:13;96906.78;;;21.58;35.27
56142;BME280;42018;48.588;10.836;2023-06-04T08:50:59;96902.72;;;21.51;35.11
56142;BME280;42018;48.588;10.836;2023-06-04T08:53:46;96914.84;;;21.91;35.13
56142;BME280;42018;48.588;10.836;2023-06-04T08:56:35;96906.88;;;21.94;34.89
56142;BME280;42018;48.588;10.836;2023-06-04T08:59:21;96899.13;;;22.05;34.65
56142;BME280;42018;48.588;10.836;2023-06-04T09:02:07;96898.19;;;22.34;34.46
56142;BME280;42018;48.588;10.836;2023-06-04T09:04:53;96895.25;;;22.64;34.76
56142;BME280;42018;48.588;10.836;2023-06-04T09:07:40;96897.03;;;22.72;33.28
56142;BME280;42018;48.588;10.836;2023-06-04T09:10:26;96898.13;;;22.96;33.65
56142;BME280;42018;48.588;10.836;2023-06-04T09:13:14;96902.97;;;23.02;33.92
56142;BME280;42018;48.588;10.836;2023-06-04T09:16:05;96898.69;;;22.89;33.98
56142;BME280;42018;48.588;10.836;2023-06-04T09:18:53;96899.91;;;23.04;32.84
56142;BME280;42018;48.588;10.836;2023-06-04T09:24:44;96886.63;;;23.55;33.11
56142;BME280;42018;48.588;10.836;2023-06-04T09:27:38;96895.38;;;23.64;33.07
56142;BME280;42018;48.588;10.836;2023-06-04T09:30:27;96891.75;;;23.72;32.34
56142;BME280;42018;48.588;10.836;2023-06-04T09:33:12;96887.72;;;23.66;31.60
56142;BME280;42018;48.588;10.836;2023-06-04T09:35:58;96887.22;;;23.76;31.97
56142;BME280;42018;48.588;10.836;2023-06-04T09:38:45;96891.53;;;23.65;32.46
56142;BME280;42018;48.588;10.836;2023-06-04T09:41:32;96892.50;;;24.17;32.94
56142;BME280;42018;48.588;10.836;2023-06-04T09:44:17;96887.59;;;24.38;31.92
56142;BME280;42018;48.588;10.836;2023-06-04T09:47:03;96888.81;;;24.56;32.32
56142;BME280;42018;48.588;10.836;2023-06-04T09:49:49;96886.31;;;24.16;31.63
56142;BME280;42018;48.588;10.836;2023-06-04T09:52:35;96888.56;;;24.46;31.43
56142;BME280;42018;48.588;10.836;2023-06-04T09:55:22;96884.78;;;24.66;31.37
56142;BME280;42018;48.588;10.836;2023-06-04T09:58:10;96886.03;;;24.53;32.03
56142;BME280;42018;48.588;10.836;2023-06-04T10:00:59;96881.78;;;24.71;29.77
56142;BME280;42018;48.588;10.836;2023-06-04T10:03:47;96885.88;;;24.81;30.94
56142;BME280;42018;48.588;10.836;2023-06-04T10:06:35;96886.25;;;24.99;30.58
56142;BME280;42018;48.588;10.836;2023-06-04T10:09:22;96882.75;;;24.98;30.53
56142;BME280;42018;48.588;10.836;2023-06-04T10:12:09;96882.25;;;24.93;30.51
56142;BME280;42018;48.588;10.836;2023-06-04T10:15:10;96890.03;;;24.59;28.18
56142;BME280;42018;48.588;10.836;2023-06-04T10:17:55;96878.00;;;25.11;29.51
56142;BME280;42018;48.588;10.836;2023-06-04T10:20:41;96882.44;;;25.39;28.72
56142;BME280;42018;48.588;10.836;2023-06-04T10:23:27;96873.53;;;25.19;29.31
56142;BME280;42018;48.588;10.836;2023-06-04T10:26:14;96876.28;;;25.42;29.09
56142;BME280;42018;48.588;10.836;2023-06-04T10:29:03;96878.50;;;25.36;28.58
56142;BME280;42018;48.588;10.836;2023-06-04T10:31:54;96873.00;;;25.52;28.99
56142;BME280;42018;48.588;10.836;2023-06-04T10:34:40;96876.44;;;25.72;28.23
56142;BME280;42018;48.588;10.836;2023-06-04T10:37:26;96875.28;;;25.50;28.34
56142;BME280;42018;48.588;10.836;2023-06-04T10:40:12;96874.44;;;25.26;29.75
56142;BME280;42018;48.588;10.836;2023-06-04T10:43:04;96869.06;;;25.49;29.43
56142;BME280;42018;48.588;10.836;2023-06-04T10:45:50;96865.94;;;25.47;28.94
56142;BME280;42018;48.588;10.836;2023-06-04T10:48:51;96872.88;;;25.25;29.85
56142;BME280;42018;48.588;10.836;2023-06-04T10:51:37;96863.38;;;25.77;29.43
56142;BME280;42018;48.588;10.836;2023-06-04T10:54:23;96864.94;;;25.78;28.69
56142;BME280;42018;48.588;10.836;2023-06-04T10:57:12;96869.56;;;25.78;29.20
56142;BME280;42018;48.588;10.836;2023-06-04T10:59:59;96865.91;;;25.67;28.93
56142;BME280;42018;48.588;10.836;2023-06-04T11:02:54;96865.16;;;26.12;28.15
56142;BME280;42018;48.588;10.836;2023-06-04T11:08:28;96871.13;;;26.74;27.20
56142;BME280;42018;48.588;10.836;2023-06-04T11:11:15;96866.16;;;26.80;26.68
56142;BME280;42018;48.588;10.836;2023-06-04T11:14:08;96861.75;;;26.98;26.89
56142;BME280;42018;48.588;10.836;2023-06-04T11:16:54;96859.13;;;26.76;26.33
56142;BME280;42018;48.588;10.836;2023-06-04T11:19:39;96853.63;;;27.02;27.03
56142;BME280;42018;48.588;10.836;2023-06-04T11:22:25;96845.41;;;26.98;27.17
56142;BME280;42018;48.588;10.836;2023-06-04T11:25:10;96855.47;;;27.25;27.00
56142;BME280;42018;48.588;10.836;2023-06-04T11:27:56;96848.06;;;27.21;26.27
56142;BME280;42018;48.588;10.836;2023-06-04T11:30:43;96848.41;;;27.54;26.30
56142;BME280;42018;48.588;10.836;2023-06-04T11:33:29;96843.81;;;27.24;25.37
56142;BME280;42018;48.588;10.836;2023-06-04T11:36:28;96842.94;;;27.50;26.80
56142;BME280;42018;48.588;10.836;2023-06-04T11:39:14;96844.72;;;27.05;25.05
56142;BME280;42018;48.588;10.836;2023-06-04T11:42:04;96849.41;;;27.38;25.76
56142;BME280;42018;48.588;10.836;2023-06-04T11:44:57;96843.00;;;27.57;25.41
56142;BME280;42018;48.588;10.836;2023-06-04T11:47:51;96845.31;;;27.96;25.09
56142;BME280;42018;48.588;10.836;2023-06-04T11:50:36;96856.00;;;27.37;24.31
56142;BME280;42018;48.588;10.836;2023-06-04T11:53:39;96850.00;;;27.58;24.83
56142;BME280;42018;48.588;10.836;2023-06-04T11:56:25;96837.06;;;27.85;26.28
56142;BME280;42018;48.588;10.836;2023-06-04T11:59:16;96830.59;;;28.01;26.23
56142;BME280;42018;48.588;10.836;2023-06-04T12:02:02;96829.44;;;28.05;24.32
56142;BME280;42018;48.588;10.836;2023-06-04T12:04:48;96832.59;;;28.11;25.46
56142;BME280;42018;48.588;10.836;2023-06-04T12:07:34;96832.13;;;28.02;24.46
56142;BME280;42018;48.588;10.836;2023-06-04T12:10:20;96827.78;;;28.45;24.93
56142;BME280;42018;48.588;10.836;2023-06-04T12:13:06;96831.66;;;27.92;24.24
56142;BME280;42018;48.588;10.836;2023-06-04T12:15:54;96827.09;;;27.63;25.31
56142;BME280;42018;48.588;10.836;2023-06-04T12:18:40;96829.53;;;27.72;24.94
56142;BME280;42018;48.588;10.836;2023-06-04T12:21:25;96834.28;;;27.82;24.76
56142;BME280;42018;48.588;10.836;2023-06-04T12:24:13;96834.44;;;28.00;24.48
56142;BME280;42018;48.588;10.836;2023-06-04T12:27:07;96832.59;;;28.07;24.34
56142;BME280;42018;48.588;10.836;2023-06-04T12:30:01;96825.56;;;28.06;24.29
56142;BME280;42018;48.588;10.836;2023-06-04T12:32:48;96829.06;;;28.07;24.73
56142;BME280;42018;48.588;10.836;2023-06-04T12:35:34;96838.31;;;27.54;25.33
56142;BME280;42018;48.588;10.836;2023-06-04T12:38:19;96822.91;;;27.73;25.01
56142;BME280;42018;48.588;10.836;2023-06-04T12:41:05;96827.22;;;28.18;24.95
56142;BME280;42018;48.588;10.836;2023-06-04T12:43:50;96829.22;;;27.80;24.99
56142;BME280;42018;48.588;10.836;2023-06-04T12:46:36;96821.13;;;27.47;25.64
56142;BME280;42018;48.588;10.836;2023-06-04T12:49:21;96815.47;;;28.10;25.50
56142;BME280;42018;48.588;10.836;2023-06-04T12:52:06;96821.16;;;28.39;23.67
56142;BME280;42018;48.588;10.836;2023-06-04T12:54:52;96821.84;;;28.29;24.15
56142;BME280;42018;48.588;10.836;2023-06-04T12:57:37;96818.00;;;27.89;24.16
56142;BME280;42018;48.588;10.836;2023-06-04T13:00:22;96820.47;;;28.56;25.24
56142;BME280;42018;48.588;10.836;2023-06-04T13:03:08;96811.13;;;28.54;23.77
56142;BME280;42018;48.588;10.836;2023-06-04T13:05:54;96804.47;;;28.48;24.43
56142;BME280;42018;48.588;10.836;2023-06-04T13:08:39;96809.25;;;28.72;24.17
56142;BME280;42018;48.588;10.836;2023-06-04T13:11:25;96810.84;;;28.14;23.76
56142;BME280;42018;48.588;10.836;2023-06-04T13:14:10;96803.06;;;28.16;24.15
56142;BME280;42018;48.588;10.836;2023-06-04T13:16:56;96808.47;;;28.13;24.61
56142;BME280;42018;48.588;10.836;2023-06-04T13:19:41;96805.25;;;27.97;24.28
56142;BME280;42018;48.588;10.836;2023-06-04T13:22:27;96810.00;;;28.10;24.00
56142;BME280;42018;48.588;10.836;2023-06-04T13:25:12;96804.75;;;28.35;23.68
56142;BME280;42018;48.588;10.836;2023-06-04T13:27:59;96810.50;;;28.89;23.37
56142;BME280;42018;48.588;10.836;2023-06-04T13:30:44;96800.81;;;29.02;22.93
56142;BME280;42018;48.588;10.836;2023-06-04T13:33:30;96806.53;;;28.72;23.39
56142;BME280;42018;48.588;10.836;2023-06-04T13:36:15;96807.66;;;28.60;23.39
56142;BME280;42018;48.588;10.836;2023-06-04T13:39:00;96815.38;;;28.00;23.94
56142;BME280;42018;48.588;10.836;2023-06-04T13:41:46;96806.44;;;28.51;23.17
56142;BME280;42018;48.588;10.836;2023-06-04T13:44:31;96808.84;;;28.70;22.91
56142;BME280;42018;48.588;10.836;2023-06-04T13:47:16;96806.09;;;28.67;24.67
56142;BME280;42018;48.588;10.836;2023-06-04T13:50:03;96798.22;;;28.47;24.16
56142;BME280;42018;48.588;10.836;2023-06-04T13:52:49;96810.03;;;28.14;22.90
56142;BME280;42018;48.588;10.836;2023-06-04T13:55:34;96803.75;;;28.06;22.36
56142;BME280;42018;48.588;10.836;2023-06-04T13:58:20;96804.09;;;27.98;23.11
56142;BME280;42018;48.588;10.836;2023-06-04T14:01:05;96810.16;;;27.77;23.43
56142;BME280;42018;48.588;10.836;2023-06-04T14:03:51;96799.50;;;27.61;23.70
56142;BME280;42018;48.588;10.836;2023-06-04T14:06:37;96805.72;;;27.61;23.87
56142;BME280;42018;48.588;10.836;2023-06-04T14:09:23;96802.22;;;27.24;23.40
56142;BME280;42018;48.588;10.836;2023-06-04T14:12:08;96814.28;;;27.63;23.55
56142;BME280;42018;48.588;10.836;2023-06-04T14:14:53;96815.44;;;27.62;24.36
56142;BME280;42018;48.588;10.836;2023-06-04T14:17:39;96808.59;;;27.38;23.36
56142;BME280;42018;48.588;10.836;2023-06-04T14:20:24;96804.09;;;26.86;24.85
56142;BME280;42018;48.588;10.836;2023-06-04T14:23:10;96798.38;;;26.64;25.04
56142;BME280;42018;48.588;10.836;2023-06-04T14:25:57;96809.53;;;26.86;23.76
56142;BME280;42018;48.588;10.836;2023-06-04T14:28:42;96801.13;;;26.98;24.99
56142;BME280;42018;48.588;10.836;2023-06-04T14:31:27;96798.13;;;27.07;24.01
56142;BME280;42018;48.588;10.836;2023-06-04T14:34:13;96800.69;;;27.26;23.58
56142;BME280;42018;48.588;10.836;2023-06-04T14:36:59;96800.00;;;27.33;24.18
56142;BME280;42018;48.588;10.836;2023-06-04T14:39:45;96791.81;;;26.99;23.83
56142;BME280;42018;48.588;10.836;2023-06-04T14:42:30;96796.19;;;26.73;23.69
56142;BME280;42018;48.588;10.836;2023-06-04T14:45:16;96794.19;;;26.70;23.88